Time;durP1;ratioP1;P1;durP2;ratioP2;P2;SDS_P1;SDS_P2;PMS_P1;PMS_P2;Temp;Humidity;BMP_temperature;BMP_pressure;BME280_temperature;BME280_humidity;BME280_pressure;Samples;Min_cycle;Max_cycle;Signal;HPM_P1;HPM_P2
2021/10/26 00:02:15;;;;;;;12.75;2.95;;;19.50;68.60;;;;;;5038678;28;20016;-69
2021/10/26 00:04:42;;;;;;;7.03;1.95;;;19.50;68.50;;;;;;5041856;28;20013;-73
2021/10/26 00:07:08;;;;;;;16.02;2.85;;;19.50;68.40;;;;;;5036405;28;20037;-72
2021/10/26 00:09:35;;;;;;;17.00;2.65;;;19.50;68.30;;;;;;5042551;28;20857;-72
2021/10/26 00:12:03;;;;;;;7.80;2.22;;;19.50;68.30;;;;;;5034471;28;20539;-73
2021/10/26 00:14:29;;;;;;;5.95;2.63;;;19.50;68.30;;;;;;5038329;28;20640;-72
2021/10/26 00:16:56;;;;;;;7.95;2.83;;;19.50;68.30;;;;;;5031253;28;20666;-74
2021/10/26 00:19:24;;;;;;;6.00;2.05;;;19.50;68.20;;;;;;5043198;28;20062;-70
2021/10/26 00:21:51;;;;;;;10.95;2.10;;;19.50;68.30;;;;;;5034984;28;20541;-67
2021/10/26 00:24:17;;;;;;;5.63;2.05;;;19.50;68.20;;;;;;5038346;28;20018;-73
2021/10/26 00:26:44;;;;;;;6.22;3.10;;;19.50;68.20;;;;;;5036044;28;20120;-73
2021/10/26 00:29:10;;;;;;;8.30;2.10;;;19.50;68.20;;;;;;5032479;28;20719;-71
2021/10/26 00:31:37;;;;;;;11.95;3.53;;;19.50;68.20;;;;;;5032901;28;20067;-70
2021/10/26 00:34:04;;;;;;;10.30;2.28;;;19.50;68.20;;;;;;5036811;28;20018;-73
2021/10/26 00:36:31;;;;;;;9.15;2.72;;;19.50;68.50;;;;;;5037141;28;20014;-72
2021/10/26 00:38:57;;;;;;;11.40;2.15;;;19.50;68.50;;;;;;5034258;28;20020;-74
2021/10/26 00:41:25;;;;;;;8.57;2.60;;;19.50;68.40;;;;;;5038156;28;20469;-73
2021/10/26 00:43:52;;;;;;;15.95;3.80;;;19.50;68.40;;;;;;5037691;28;20033;-72
2021/10/26 00:47:01;;;;;;;7.10;1.80;;;19.50;68.40;;;;;;5035527;28;20103;-74
2021/10/26 00:50:07;;;;;;;6.18;2.10;;;19.50;68.40;;;;;;5042734;28;20017;-71
2021/10/26 00:53:13;;;;;;;9.38;2.35;;;19.50;68.40;;;;;;5039041;28;20519;-71
2021/10/26 00:56:20;;;;;;;11.15;2.28;;;19.50;68.40;;;;;;5045269;28;20009;-73
2021/10/26 00:59:26;;;;;;;5.95;1.75;;;19.50;68.30;;;;;;5041466;28;20013;-73
2021/10/26 01:02:32;;;;;;;7.85;2.47;;;19.50;68.30;;;;;;5033537;28;20538;-73
2021/10/26 01:05:38;;;;;;;6.82;2.28;;;19.50;68.30;;;;;;5033426;28;20018;-73
2021/10/26 01:08:44;;;;;;;8.48;2.15;;;19.40;68.20;;;;;;5039373;28;20032;-73
2021/10/26 01:11:50;;;;;;;11.25;3.08;;;19.40;68.40;;;;;;5041030;28;20117;-66
2021/10/26 01:14:56;;;;;;;10.18;1.75;;;19.40;68.40;;;;;;5041848;28;20028;-73
2021/10/26 01:18:03;;;;;;;7.53;1.73;;;19.40;68.40;;;;;;5041408;28;20536;-73
2021/10/26 01:20:49;;;;;;;;;;;19.40;68.50;;;;;;5036213;28;20108;-72
2021/10/26 01:23:55;;;;;;;9.27;2.40;;;19.40;68.50;;;;;;5039522;28;19916;-71
2021/10/26 01:27:01;;;;;;;10.18;3.00;;;19.40;68.70;;;;;;5033038;28;20049;-73
2021/10/26 01:30:07;;;;;;;12.00;3.50;;;19.40;68.60;;;;;;5039356;28;20091;-72
2021/10/26 01:33:13;;;;;;;7.25;2.03;;;19.40;68.40;;;;;;5036632;28;20025;-70
2021/10/26 01:36:21;;;;;;;7.22;2.45;;;19.40;68.20;;;;;;5041729;28;20021;-67
2021/10/26 01:39:27;;;;;;;8.68;2.78;;;19.40;68.20;;;;;;5041241;28;20622;-74
2021/10/26 01:42:34;;;;;;;8.23;1.92;;;19.40;68.10;;;;;;5041422;28;20032;-74
2021/10/26 01:45:40;;;;;;;8.85;2.70;;;19.40;68.00;;;;;;5038791;28;20014;-73
2021/10/26 01:48:46;;;;;;;10.98;2.08;;;19.30;67.80;;;;;;5039509;28;20079;-74
2021/10/26 01:51:52;;;;;;;10.63;2.35;;;19.40;67.90;;;;;;5035895;28;20469;-70
2021/10/26 01:54:58;;;;;;;12.38;2.53;;;19.30;68.10;;;;;;5038685;28;20015;-71
2021/10/26 01:58:04;;;;;;;11.38;2.10;;;19.30;68.30;;;;;;5035439;28;20089;-72
2021/10/26 02:01:11;;;;;;;11.80;1.95;;;19.30;68.30;;;;;;5034699;28;20086;-74
2021/10/26 02:03:37;;;;;;;10.20;3.58;;;19.30;68.30;;;;;;5037574;28;20021;-73
2021/10/26 02:06:04;;;;;;;10.95;2.17;;;19.20;68.10;;;;;;5041672;28;20025;-72
2021/10/26 02:08:30;;;;;;;3.92;1.80;;;19.30;68.30;;;;;;5041874;28;20033;-73
2021/10/26 02:10:57;;;;;;;5.53;2.30;;;19.20;68.30;;;;;;5036186;28;20052;-69
2021/10/26 02:13:23;;;;;;;9.88;2.70;;;19.20;68.50;;;;;;5038453;28;20032;-75
2021/10/26 02:15:50;;;;;;;9.55;2.28;;;19.20;68.50;;;;;;5036356;28;20048;-71
2021/10/26 02:18:16;;;;;;;10.20;3.05;;;19.20;68.70;;;;;;5036739;28;20025;-74
2021/10/26 02:20:43;;;;;;;9.30;3.08;;;19.20;68.80;;;;;;5036574;28;20415;-72
2021/10/26 02:23:09;;;;;;;9.00;3.42;;;19.20;69.00;;;;;;5037356;28;20400;-72
2021/10/26 02:25:36;;;;;;;12.70;2.67;;;19.20;69.20;;;;;;5038394;28;20075;-74
2021/10/26 02:28:03;;;;;;;5.70;2.47;;;19.20;69.40;;;;;;5037478;28;20028;-74
2021/10/26 02:30:29;;;;;;;6.90;2.92;;;19.20;69.40;;;;;;5033692;28;20012;-70
2021/10/26 02:32:56;;;;;;;11.77;3.53;;;19.20;69.50;;;;;;5038504;28;20018;-71
2021/10/26 02:35:22;;;;;;;11.45;2.72;;;19.20;69.70;;;;;;5041308;28;20476;-74
2021/10/26 02:37:49;;;;;;;4.75;1.88;;;19.10;69.70;;;;;;5038494;28;20032;-70
2021/10/26 02:40:15;;;;;;;7.63;2.17;;;19.10;69.70;;;;;;5038312;28;20087;-72
2021/10/26 02:42:42;;;;;;;8.38;2.70;;;19.10;69.70;;;;;;5036449;28;20020;-73
2021/10/26 02:45:09;;;;;;;10.93;2.50;;;19.10;70.00;;;;;;5039284;28;20767;-73
2021/10/26 02:47:37;;;;;;;6.80;2.00;;;19.10;70.10;;;;;;5036067;28;20496;-72
2021/10/26 02:50:05;;;;;;;7.93;2.45;;;19.10;70.20;;;;;;5038069;28;20434;-72
2021/10/26 02:52:31;;;;;;;9.85;2.90;;;19.00;70.20;;;;;;5038444;28;20051;-67
2021/10/26 02:54:58;;;;;;;12.80;3.53;;;19.00;70.30;;;;;;5036840;28;20528;-73
2021/10/26 02:57:24;;;;;;;10.32;2.80;;;19.00;70.50;;;;;;5044231;28;20024;-73
2021/10/26 02:59:51;;;;;;;7.78;2.92;;;18.90;70.60;;;;;;5039114;28;20035;-73
2021/10/26 03:02:17;;;;;;;10.00;3.78;;;19.00;70.70;;;;;;5040964;28;20096;-70
2021/10/26 03:04:44;;;;;;;10.77;3.03;;;18.90;70.60;;;;;;5037877;28;20021;-69
2021/10/26 03:07:10;;;;;;;8.30;3.33;;;18.90;70.70;;;;;;5043759;28;20041;-72
2021/10/26 03:09:37;;;;;;;9.77;2.95;;;18.90;70.70;;;;;;5038740;28;20471;-70
2021/10/26 03:12:04;;;;;;;10.80;3.72;;;18.90;70.70;;;;;;5039076;28;20025;-73
2021/10/26 03:14:31;;;;;;;9.85;2.97;;;18.80;70.70;;;;;;5042408;28;20021;-71
2021/10/26 03:16:57;;;;;;;5.57;2.60;;;18.80;70.80;;;;;;5037076;28;20048;-72
2021/10/26 03:19:23;;;;;;;9.88;2.85;;;18.80;71.00;;;;;;5037999;28;20059;-72
2021/10/26 03:21:50;;;;;;;7.95;3.40;;;18.80;71.90;;;;;;5036380;28;20026;-73
2021/10/26 03:24:16;;;;;;;13.80;3.00;;;18.80;71.40;;;;;;5042107;28;20400;-68
2021/10/26 03:26:43;;;;;;;9.68;2.45;;;18.80;71.40;;;;;;5034919;28;20596;-73
2021/10/26 03:29:09;;;;;;;11.40;3.55;;;18.80;71.70;;;;;;5039100;28;20112;-74
2021/10/26 03:31:36;;;;;;;10.00;2.88;;;18.80;71.70;;;;;;5036782;28;20029;-73
2021/10/26 03:34:02;;;;;;;12.70;3.17;;;18.80;71.70;;;;;;5040142;28;20017;-74
2021/10/26 03:36:29;;;;;;;15.02;5.03;;;18.80;71.80;;;;;;5041355;28;20009;-73
2021/10/26 03:38:56;;;;;;;11.90;2.70;;;18.70;71.90;;;;;;5037712;28;20116;-69
2021/10/26 03:41:22;;;;;;;11.55;2.90;;;18.70;71.90;;;;;;5037392;28;20021;-72
2021/10/26 03:43:49;;;;;;;14.70;3.25;;;18.70;72.00;;;;;;5033169;28;20480;-73
2021/10/26 03:46:15;;;;;;;13.93;4.13;;;18.70;72.10;;;;;;5033928;28;20020;-73
2021/10/26 03:48:43;;;;;;;10.40;2.40;;;18.70;72.20;;;;;;5042477;28;20021;-73
2021/10/26 03:51:09;;;;;;;9.15;2.92;;;18.70;72.00;;;;;;5037926;28;20020;-70
2021/10/26 03:53:36;;;;;;;11.35;3.65;;;18.70;72.00;;;;;;5038702;28;20026;-73
2021/10/26 03:56:04;;;;;;;10.00;2.47;;;18.70;72.10;;;;;;5037312;28;20465;-75
2021/10/26 03:58:32;;;;;;;8.10;2.75;;;18.70;72.20;;;;;;5042758;28;20045;-75
2021/10/26 04:00:58;;;;;;;10.18;3.05;;;18.70;72.30;;;;;;5037779;28;20024;-77
2021/10/26 04:03:25;;;;;;;22.20;14.15;;;18.70;72.30;;;;;;5039328;28;20024;-77
2021/10/26 04:06:00;;;;;;;20.80;9.77;;;18.70;72.30;;;;;;5033476;28;20038;-76
2021/10/26 04:09:09;;;;;;;17.33;7.20;;;18.70;72.10;;;;;;5033310;28;20044;-70
2021/10/26 04:11:51;;;;;;;13.68;2.78;;;18.70;71.90;;;;;;5038064;28;20029;-75
2021/10/26 04:14:18;;;;;;;7.70;3.50;;;18.70;71.70;;;;;;5034005;28;20021;-80
2021/10/26 04:16:44;;;;;;;13.98;3.08;;;18.70;71.20;;;;;;5022950;28;20111;-76
2021/10/26 04:19:11;;;;;;;18.40;9.70;;;18.70;70.80;;;;;;5030538;28;20032;-68
2021/10/26 04:21:38;;;;;;;31.40;22.63;;;18.70;70.70;;;;;;5023795;28;20026;-74
2021/10/26 04:24:04;;;;;;;11.82;3.88;;;18.80;70.40;;;;;;5041502;28;20105;-77
2021/10/26 04:26:31;;;;;;;10.77;3.17;;;18.80;69.90;;;;;;5029251;28;20057;-73
2021/10/26 04:28:57;;;;;;;6.68;2.80;;;18.80;69.70;;;;;;5028831;28;20025;-75
2021/10/26 04:31:24;;;;;;;7.38;3.63;;;18.90;69.70;;;;;;5026093;28;20033;-76
2021/10/26 04:33:50;;;;;;;27.55;19.15;;;18.90;69.80;;;;;;5029572;28;20033;-75
2021/10/26 04:36:17;;;;;;;34.83;24.75;;;18.90;69.90;;;;;;5029354;28;20061;-75
2021/10/26 04:38:44;;;;;;;9.27;5.18;;;18.90;69.90;;;;;;5029462;28;20126;-73
2021/10/26 04:41:12;;;;;;;9.23;3.03;;;18.90;69.80;;;;;;5044114;28;20029;-70
2021/10/26 04:43:38;;;;;;;15.18;3.33;;;18.90;69.90;;;;;;5029955;28;20029;-75
2021/10/26 04:46:05;;;;;;;7.70;2.95;;;18.90;70.20;;;;;;5025805;28;20026;-67
2021/10/26 04:48:31;;;;;;;11.98;3.67;;;18.90;70.40;;;;;;5027234;28;20037;-66
2021/10/26 04:50:58;;;;;;;8.55;3.05;;;18.90;70.40;;;;;;5027820;28;20025;-68
2021/10/26 04:53:25;;;;;;;12.60;2.72;;;18.90;70.40;;;;;;5024900;28;20030;-71
2021/10/26 04:55:51;;;;;;;13.35;4.07;;;18.90;70.30;;;;;;5034990;28;20474;-73
2021/10/26 04:58:18;;;;;;;7.70;3.13;;;18.80;70.00;;;;;;5039671;28;20029;-70
2021/10/26 05:00:44;;;;;;;17.33;3.70;;;18.90;70.00;;;;;;5037912;28;20039;-72
2021/10/26 05:03:11;;;;;;;10.00;2.70;;;18.90;70.20;;;;;;5034273;28;20022;-75
2021/10/26 05:05:37;;;;;;;8.27;2.75;;;18.90;70.40;;;;;;5035075;28;20104;-73
2021/10/26 05:08:04;;;;;;;9.85;2.67;;;18.90;70.50;;;;;;5036470;28;20104;-75
2021/10/26 05:10:31;;;;;;;12.05;2.78;;;18.90;70.70;;;;;;5036844;28;20005;-70
2021/10/26 05:12:57;;;;;;;11.48;4.60;;;18.90;70.70;;;;;;5036734;28;20530;-75
2021/10/26 05:15:24;;;;;;;8.98;3.55;;;19.00;70.70;;;;;;5035017;28;20964;-67
2021/10/26 05:17:51;;;;;;;14.20;3.83;;;19.00;70.80;;;;;;5038378;28;20028;-70
2021/10/26 05:20:19;;;;;;;14.43;4.00;;;19.00;70.70;;;;;;5034519;28;20021;-75
2021/10/26 05:22:46;;;;;;;9.68;2.90;;;19.10;70.50;;;;;;5033156;28;20839;-74
2021/10/26 05:25:13;;;;;;;8.85;2.88;;;19.10;70.30;;;;;;5040040;28;20404;-73
2021/10/26 05:27:41;;;;;;;8.10;2.78;;;19.20;70.60;;;;;;5035207;28;20083;-70
2021/10/26 05:30:47;;;;;;;11.68;3.22;;;19.20;70.30;;;;;;5035194;28;20099;-72
2021/10/26 05:33:54;;;;;;;12.50;2.55;;;19.30;70.30;;;;;;5036650;28;20456;-74
2021/10/26 05:36:20;;;;;;;10.40;2.90;;;19.30;70.10;;;;;;5037796;28;20021;-70
2021/10/26 05:38:47;;;;;;;10.40;4.05;;;19.40;70.00;;;;;;5042127;28;20034;-71
2021/10/26 05:41:17;;;;;;;11.57;3.10;;;19.40;69.90;;;;;;5034210;28;20028;-73
2021/10/26 05:43:43;;;;;;;8.13;2.53;;;19.50;69.60;;;;;;5036787;28;20029;-69
2021/10/26 05:46:10;;;;;;;8.57;2.80;;;19.50;69.70;;;;;;5040128;28;20021;-72
2021/10/26 05:48:36;;;;;;;10.45;2.50;;;19.50;69.80;;;;;;5042539;28;20061;-73
2021/10/26 05:51:04;;;;;;;15.50;4.50;;;19.60;69.90;;;;;;5037307;28;20531;-73
2021/10/26 05:53:32;;;;;;;11.10;3.50;;;19.60;69.60;;;;;;5036576;28;20104;-66
2021/10/26 05:55:58;;;;;;;7.57;3.03;;;19.70;69.60;;;;;;5038223;28;20017;-74
2021/10/26 05:58:25;;;;;;;12.15;3.05;;;19.70;69.50;;;;;;5035144;28;20022;-72
2021/10/26 06:00:51;;;;;;;10.80;3.17;;;19.80;69.10;;;;;;5041674;28;20044;-73
2021/10/26 06:03:18;;;;;;;11.35;3.22;;;19.80;69.20;;;;;;5041389;28;20024;-72
2021/10/26 06:06:24;;;;;;;8.25;3.35;;;19.80;69.10;;;;;;5042660;28;20384;-74
2021/10/26 06:09:33;;;;;;;9.82;3.40;;;19.90;68.90;;;;;;5037415;28;20083;-70
2021/10/26 06:12:43;;;;;;;8.73;2.33;;;20.00;68.40;;;;;;5037130;28;20022;-69
2021/10/26 06:15:50;;;;;;;7.95;2.55;;;20.10;68.10;;;;;;5038396;28;20028;-71
2021/10/26 06:18:56;;;;;;;13.57;3.25;;;20.10;67.70;;;;;;5041170;28;20032;-69
2021/10/26 06:22:02;;;;;;;15.40;4.60;;;20.20;67.60;;;;;;5041785;28;20029;-70
2021/10/26 06:25:09;;;;;;;10.65;2.50;;;20.30;67.10;;;;;;5037298;28;20425;-71
2021/10/26 06:28:15;;;;;;;12.15;3.42;;;20.40;66.30;;;;;;5038092;28;20199;-70
2021/10/26 06:31:21;;;;;;;12.60;3.13;;;20.50;66.00;;;;;;5035947;28;20130;-72
2021/10/26 06:34:27;;;;;;;10.18;2.92;;;20.60;66.40;;;;;;5039058;28;20021;-72
2021/10/26 06:37:35;;;;;;;13.35;3.50;;;20.70;66.50;;;;;;5040150;28;20484;-70
2021/10/26 06:40:41;;;;;;;10.35;3.03;;;20.70;65.40;;;;;;5040558;28;20017;-72
2021/10/26 06:43:48;;;;;;;18.23;4.88;;;20.80;65.30;;;;;;5041469;28;20018;-71
2021/10/26 06:46:54;;;;;;;13.82;3.60;;;20.90;65.50;;;;;;5037716;28;20025;-72
2021/10/26 06:49:21;;;;;;;14.23;3.13;;;20.90;65.70;;;;;;5039356;28;20105;-73
2021/10/26 06:51:47;;;;;;;11.48;3.55;;;21.00;66.00;;;;;;5040130;28;20018;-71
2021/10/26 06:54:14;;;;;;;11.65;3.00;;;21.00;65.90;;;;;;5038493;28;20423;-70
2021/10/26 06:56:41;;;;;;;12.57;2.90;;;21.10;65.50;;;;;;5038523;28;20025;-70
2021/10/26 06:59:07;;;;;;;8.60;2.30;;;21.10;65.00;;;;;;5038890;28;20460;-72
2021/10/26 07:01:34;;;;;;;10.35;3.38;;;21.20;64.90;;;;;;5040274;28;20598;-71
2021/10/26 07:04:00;;;;;;;9.50;2.60;;;21.20;64.60;;;;;;5035018;28;20555;-72
2021/10/26 07:06:27;;;;;;;8.00;3.17;;;21.30;64.80;;;;;;5038030;28;20368;-69
2021/10/26 07:08:53;;;;;;;8.65;2.47;;;21.30;65.10;;;;;;5035302;28;20021;-70
2021/10/26 07:11:20;;;;;;;26.60;5.78;;;21.40;65.30;;;;;;5036845;28;20008;-71
2021/10/26 07:13:47;;;;;;;8.52;3.35;;;21.50;65.40;;;;;;5036885;28;20028;-70
2021/10/26 07:16:14;;;;;;;10.13;3.75;;;21.60;65.20;;;;;;5035568;28;20075;-72
2021/10/26 07:18:40;;;;;;;16.35;4.05;;;21.60;64.70;;;;;;5037296;28;20017;-71
2021/10/26 07:21:07;;;;;;;13.13;4.05;;;21.70;65.40;;;;;;5036026;28;20047;-71
2021/10/26 07:23:34;;;;;;;12.55;3.15;;;21.80;63.60;;;;;;5033416;28;20571;-68
2021/10/26 07:26:01;;;;;;;11.13;3.53;;;21.90;63.50;;;;;;5043414;28;20037;-69
2021/10/26 07:28:27;;;;;;;14.02;3.45;;;21.90;63.70;;;;;;5036102;28;20079;-65
2021/10/26 07:30:54;;;;;;;9.57;2.67;;;21.90;63.80;;;;;;5037492;28;20100;-69
2021/10/26 07:33:25;;;;;;;9.95;3.03;;;22.00;63.90;;;;;;5035557;28;20064;-71
2021/10/26 07:35:54;;;;;;;10.13;2.25;;;22.00;63.50;;;;;;5038464;28;20394;-70
2021/10/26 07:38:33;;;;;;;13.18;2.45;;;22.00;63.10;;;;;;5037618;28;20029;-68
2021/10/26 07:41:00;;;;;;;10.15;2.90;;;22.10;63.10;;;;;;5036899;28;20044;-70
2021/10/26 07:43:30;;;;;;;10.73;3.50;;;22.10;62.80;;;;;;5035467;28;20017;-71
2021/10/26 07:46:00;;;;;;;9.63;2.78;;;22.20;62.70;;;;;;5039011;28;20009;-71
2021/10/26 07:48:27;;;;;;;13.85;3.63;;;22.20;62.80;;;;;;5036658;28;20061;-71
2021/10/26 07:50:58;;;;;;;10.43;2.90;;;22.30;63.00;;;;;;5037471;28;20381;-68
2021/10/26 07:53:28;;;;;;;15.20;3.58;;;22.40;63.30;;;;;;5042069;28;20014;-70
2021/10/26 07:55:57;;;;;;;12.32;3.33;;;22.50;63.10;;;;;;5036758;28;20025;-71
2021/10/26 07:58:25;;;;;;;15.77;4.00;;;22.60;62.50;;;;;;5034379;28;20064;-70
2021/10/26 08:00:53;;;;;;;11.57;4.57;;;22.70;62.40;;;;;;5033195;28;20136;-71
2021/10/26 08:03:20;;;;;;;15.70;3.53;;;22.80;62.20;;;;;;5040344;28;20009;-70
2021/10/26 08:05:47;;;;;;;17.85;4.70;;;23.00;61.80;;;;;;5038591;28;20059;-68
2021/10/26 08:08:17;;;;;;;13.63;4.65;;;23.00;61.10;;;;;;5036985;28;20037;-67
2021/10/26 08:10:44;;;;;;;10.50;3.40;;;23.20;60.00;;;;;;5035880;28;20099;-71
2021/10/26 08:13:11;;;;;;;9.75;2.92;;;23.30;60.00;;;;;;5036969;28;20021;-66
2021/10/26 08:15:38;;;;;;;10.63;2.85;;;23.30;59.80;;;;;;5038756;28;20087;-71
2021/10/26 08:18:04;;;;;;;11.52;3.22;;;23.40;59.30;;;;;;5039756;28;20049;-69
2021/10/26 08:20:31;;;;;;;9.30;3.22;;;23.40;59.00;;;;;;5038774;28;20017;-72
2021/10/26 08:22:57;;;;;;;5.95;2.55;;;23.40;58.70;;;;;;5040736;28;20400;-70
2021/10/26 08:25:27;;;;;;;11.93;2.70;;;23.50;58.60;;;;;;5038582;28;20052;-71
2021/10/26 08:27:56;;;;;;;16.05;3.58;;;23.50;57.80;;;;;;5038464;28;20029;-71
2021/10/26 08:30:32;;;;;;;9.77;3.35;;;23.60;57.50;;;;;;5040696;28;20397;-72
2021/10/26 08:35:34;;;;;;;14.07;2.63;;;23.70;56.60;;;;;;5038979;28;20491;-71
2021/10/26 08:38:05;;;;;;;9.75;3.05;;;23.80;56.60;;;;;;5038243;28;20087;-70
2021/10/26 08:40:34;;;;;;;10.52;3.00;;;23.90;56.80;;;;;;5037475;28;20068;-70
2021/10/26 08:43:08;;;;;;;10.95;4.10;;;24.00;56.60;;;;;;5034625;28;20017;-71
2021/10/26 08:45:37;;;;;;;8.02;2.50;;;24.20;56.40;;;;;;5035166;28;20067;-70
2021/10/26 08:48:06;;;;;;;8.32;2.90;;;24.30;55.90;;;;;;5042361;28;20040;-70
2021/10/26 08:50:35;;;;;;;10.57;3.03;;;24.40;55.30;;;;;;5034002;28;20043;-67
2021/10/26 08:53:04;;;;;;;5.72;2.47;;;24.60;55.00;;;;;;5040127;28;20044;-70
2021/10/26 08:55:36;;;;;;;8.15;2.22;;;24.60;54.40;;;;;;5031831;28;20017;-70
2021/10/26 08:58:45;;;;;;;10.82;3.42;;;24.70;54.00;;;;;;5030813;28;20557;-70
2021/10/26 09:01:51;;;;;;;8.63;2.80;;;24.80;53.60;;;;;;5036406;28;20444;-70
2021/10/26 09:04:18;;;;;;;10.00;2.53;;;24.80;53.90;;;;;;5034550;28;20063;-71
2021/10/26 09:06:54;;;;;;;7.65;2.58;;;24.90;54.20;;;;;;5036535;28;20028;-67
2021/10/26 09:09:23;;;;;;;7.35;1.77;;;25.00;53.60;;;;;;5035633;28;20025;-72
2021/10/26 09:17:26;;;;;;;9.02;2.22;;;25.10;51.40;;;;;;5044427;28;20036;-70
2021/10/26 09:19:55;;;;;;;10.10;2.47;;;25.30;50.10;;;;;;5040157;28;20032;-70
2021/10/26 09:22:23;;;;;;;7.20;2.08;;;25.30;50.60;;;;;;5040498;28;20535;-68
2021/10/26 09:25:12;;;;;;;8.88;3.10;;;25.30;50.60;;;;;;5039314;28;20036;-71
2021/10/26 09:27:40;;;;;;;8.38;2.03;;;25.30;50.90;;;;;;5040489;28;20045;-69
2021/10/26 09:30:10;;;;;;;11.48;2.35;;;25.30;50.60;;;;;;5034458;28;20017;-68
2021/10/26 09:32:40;;;;;;;6.50;1.90;;;25.30;49.70;;;;;;5039643;28;20021;-69
2021/10/26 09:35:09;;;;;;;8.20;2.35;;;25.30;48.90;;;;;;5037758;28;20025;-70
2021/10/26 09:37:38;;;;;;;5.90;2.00;;;25.40;48.90;;;;;;5040663;28;20032;-68
2021/10/26 09:40:07;;;;;;;5.30;1.90;;;25.50;49.10;;;;;;5037621;28;20103;-70
2021/10/26 09:42:48;;;;;;;5.90;2.45;;;25.60;48.30;;;;;;5042776;28;20017;-69
2021/10/26 09:45:27;;;;;;;6.22;1.77;;;25.70;47.50;;;;;;5036610;28;20009;-70
2021/10/26 09:47:55;;;;;;;6.70;1.90;;;25.80;46.40;;;;;;5035763;28;20040;-70
2021/10/26 09:50:34;;;;;;;7.90;1.63;;;25.90;46.70;;;;;;5040024;28;20487;-70
2021/10/26 09:53:08;;;;;;;6.28;2.78;;;26.00;46.00;;;;;;5042300;28;20387;-71
2021/10/26 09:55:47;;;;;;;7.55;2.22;;;26.10;45.70;;;;;;5040240;28;20014;-67
2021/10/26 09:58:18;;;;;;;7.75;2.25;;;26.20;46.10;;;;;;5033785;28;20034;-68
2021/10/26 10:00:47;;;;;;;8.77;3.20;;;26.40;46.40;;;;;;5036425;28;20017;-69
2021/10/26 10:03:21;;;;;;;11.63;3.05;;;26.50;46.00;;;;;;5039100;28;20358;-69
2021/10/26 10:06:03;;;;;;;7.68;1.83;;;26.50;44.00;;;;;;5042426;28;20044;-71
2021/10/26 10:08:34;;;;;;;8.40;2.83;;;26.50;44.70;;;;;;5039753;28;20039;-71
2021/10/26 10:11:07;;;;;;;9.45;1.75;;;26.50;44.60;;;;;;5037254;28;20021;-70
2021/10/26 10:13:35;;;;;;;3.35;1.83;;;26.50;43.70;;;;;;5037810;28;20044;-69
2021/10/26 10:16:04;;;;;;;8.90;2.20;;;26.60;43.80;;;;;;5041148;28;20461;-68
2021/10/26 10:18:32;;;;;;;5.30;1.85;;;26.60;43.90;;;;;;5036864;28;20544;-70
2021/10/26 10:20:58;;;;;;;5.32;2.03;;;26.70;43.30;;;;;;5038132;28;20468;-70
2021/10/26 10:23:26;;;;;;;4.60;2.13;;;26.70;44.10;;;;;;5041282;28;20575;-69
2021/10/26 10:25:56;;;;;;;5.38;1.77;;;26.70;44.40;;;;;;5038144;28;20099;-69
2021/10/26 10:28:29;;;;;;;5.30;1.67;;;26.80;42.90;;;;;;5037546;28;20124;-70
2021/10/26 10:31:00;;;;;;;5.88;1.63;;;26.80;42.70;;;;;;5037309;28;20148;-71
2021/10/26 10:33:28;;;;;;;11.98;2.92;;;26.80;43.20;;;;;;5040209;28;20029;-70
2021/10/26 10:35:58;;;;;;;5.18;1.58;;;26.90;43.70;;;;;;5040068;28;20361;-71
2021/10/26 10:38:27;;;;;;;9.10;2.90;;;26.80;43.80;;;;;;5038223;28;20013;-70
2021/10/26 10:41:21;;;;;;;13.20;2.67;;;26.80;44.70;;;;;;5041705;28;20028;-71
2021/10/26 10:43:48;;;;;;;8.98;2.25;;;26.80;46.40;;;;;;5036706;28;20349;-71
2021/10/26 10:47:02;;;;;;;7.32;3.00;;;26.70;46.70;;;;;;5039307;28;20009;-70
2021/10/26 10:49:37;;;;;;;9.27;2.92;;;26.60;46.90;;;;;;5040560;28;20030;-70
2021/10/26 10:52:14;;;;;;;10.27;3.83;;;26.60;46.80;;;;;;5042759;28;20103;-71
2021/10/26 10:54:56;;;;;;;10.13;3.20;;;26.60;46.80;;;;;;5036884;28;20108;-70
2021/10/26 10:57:29;;;;;;;7.93;3.50;;;26.60;46.80;;;;;;5034829;28;20032;-69
2021/10/26 11:00:18;;;;;;;11.32;3.70;;;26.70;46.60;;;;;;5038402;28;20056;-69
2021/10/26 11:02:50;;;;;;;10.25;4.05;;;26.70;46.80;;;;;;5042288;28;20028;-71
2021/10/26 11:05:38;;;;;;;7.70;3.00;;;26.80;46.70;;;;;;5036407;28;20045;-70
2021/10/26 11:08:12;;;;;;;5.72;2.40;;;27.00;46.80;;;;;;5040881;28;20492;-70
2021/10/26 11:10:52;;;;;;;6.00;2.70;;;27.20;46.60;;;;;;5039889;28;20017;-70
2021/10/26 11:13:23;;;;;;;5.45;2.85;;;27.40;46.40;;;;;;5033518;28;20595;-66
2021/10/26 11:15:52;;;;;;;10.00;2.75;;;27.50;46.60;;;;;;5039468;28;20030;-68
2021/10/26 11:18:34;;;;;;;8.05;3.50;;;27.70;46.10;;;;;;5041510;28;20013;-70
2021/10/26 11:21:02;;;;;;;10.07;2.13;;;27.90;45.80;;;;;;5039583;28;20024;-68
2021/10/26 11:23:37;;;;;;;7.45;3.63;;;27.90;45.50;;;;;;5037970;28;20423;-71
2021/10/26 11:26:15;;;;;;;8.15;2.83;;;27.90;45.20;;;;;;5040027;28;20424;-71
2021/10/26 11:28:50;;;;;;;7.82;2.95;;;27.80;45.40;;;;;;5040810;28;20043;-68
2021/10/26 11:31:23;;;;;;;7.97;3.15;;;27.80;45.60;;;;;;5036605;28;20018;-71
2021/10/26 11:33:56;;;;;;;6.45;2.47;;;27.90;45.10;;;;;;5036224;28;20112;-69
2021/10/26 11:36:30;;;;;;;7.30;2.40;;;27.90;45.00;;;;;;5035435;28;20025;-71
2021/10/26 11:38:59;;;;;;;7.75;3.42;;;27.90;44.50;;;;;;5037858;28;20021;-70
2021/10/26 11:41:38;;;;;;;5.95;2.10;;;27.90;44.40;;;;;;5036512;28;20029;-71
2021/10/26 11:44:44;;;;;;;7.00;3.60;;;27.90;44.70;;;;;;5024156;28;20029;-71
2021/10/26 11:47:50;;;;;;;10.93;2.53;;;28.00;44.20;;;;;;5028998;28;20037;-67
2021/10/26 11:50:56;;;;;;;6.40;2.67;;;28.00;43.70;;;;;;5031387;28;20032;-67
2021/10/26 11:53:29;;;;;;;6.45;2.20;;;28.10;43.50;;;;;;5025013;28;20029;-70
2021/10/26 11:55:55;;;;;;;9.93;2.50;;;28.20;44.10;;;;;;5027777;28;20032;-71
2021/10/26 11:58:22;;;;;;;10.18;2.70;;;28.30;44.00;;;;;;5026625;28;20026;-71
2021/10/26 12:00:59;;;;;;;11.93;3.08;;;28.40;43.60;;;;;;5025920;28;20018;-71
2021/10/26 12:03:26;;;;;;;5.43;2.53;;;28.40;43.70;;;;;;5026607;28;20067;-71
2021/10/26 12:05:56;;;;;;;21.00;16.77;;;28.60;43.80;;;;;;5031456;28;20039;-70
2021/10/26 14:41:14;;;;;;;24.20;13.38;;;27.10;53.00;;;;;;6184293;23;20020;-66
2021/10/26 14:54:15;;;;;;;139.13;83.70;;;26.90;55.30;;;;;;6181269;23;20087;-69
2021/10/26 14:57:22;;;;;;;25.77;11.32;;;27.10;56.00;;;;;;6181199;23;20031;-82
2021/10/26 15:00:28;;;;;;;16.92;6.07;;;27.20;54.70;;;;;;6184859;23;20020;-67
2021/10/26 15:03:34;;;;;;;16.65;5.05;;;27.30;55.00;;;;;;6183790;23;20012;-65
2021/10/26 15:06:41;;;;;;;16.10;7.00;;;27.50;54.40;;;;;;6181192;23;20001;-68
2021/10/26 15:09:51;;;;;;;13.95;4.40;;;27.50;54.40;;;;;;6183675;23;20012;-69
2021/10/26 15:13:00;;;;;;;15.85;4.70;;;27.60;53.90;;;;;;6183529;23;20001;-66
2021/10/26 15:16:06;;;;;;;14.77;4.93;;;27.70;53.50;;;;;;6181600;23;20092;-76
2021/10/26 15:19:12;;;;;;;16.67;4.82;;;27.70;53.50;;;;;;6182521;23;20094;-67
2021/10/26 15:33:42;;;;;;;10.63;5.22;;;27.50;53.70;;;;;;6182367;23;20350;-67
2021/10/26 15:36:09;;;;;;;16.52;8.98;;;27.50;53.60;;;;;;6179911;23;20009;-78
2021/10/26 15:39:15;;;;;;;24.25;13.02;;;27.50;53.70;;;;;;6178189;23;20025;-76
2021/10/26 15:42:21;;;;;;;13.63;5.15;;;27.60;53.30;;;;;;6179615;23;20013;-77
2021/10/26 15:45:28;;;;;;;14.18;4.25;;;27.60;53.20;;;;;;6180436;23;20005;-73
2021/10/26 15:48:34;;;;;;;12.85;5.10;;;27.60;53.10;;;;;;6181156;23;20005;-75
2021/10/26 15:51:40;;;;;;;20.83;6.57;;;27.50;53.00;;;;;;6183468;23;20009;-68
2021/10/26 15:54:46;;;;;;;16.73;4.90;;;27.40;53.20;;;;;;6181687;23;20298;-70
2021/10/26 15:57:52;;;;;;;16.17;5.82;;;27.30;53.40;;;;;;6182426;23;20324;-68
2021/10/26 16:00:58;;;;;;;12.18;4.18;;;27.30;53.70;;;;;;6183127;23;19997;-67
2021/10/26 16:04:05;;;;;;;21.67;5.05;;;27.20;53.50;;;;;;6182944;23;20467;-67
2021/10/26 16:07:11;;;;;;;19.23;6.03;;;27.20;53.70;;;;;;6181628;23;20084;-65
2021/10/26 16:10:24;;;;;;;16.73;4.20;;;27.20;53.80;;;;;;6182871;23;20056;-69
2021/10/26 16:13:34;;;;;;;18.65;6.50;;;27.10;53.70;;;;;;6183384;23;19997;-63
2021/10/26 16:16:40;;;;;;;17.70;4.90;;;27.10;54.20;;;;;;6182447;23;20004;-65
2021/10/26 16:19:46;;;;;;;23.58;8.35;;;27.00;54.20;;;;;;6167716;23;20009;-65
2021/10/26 16:22:52;;;;;;;18.13;4.63;;;26.90;54.30;;;;;;6173808;23;20013;-76
2021/10/26 16:26:00;;;;;;;10.93;3.85;;;26.80;54.40;;;;;;6177485;23;20005;-71
2021/10/26 16:29:06;;;;;;;14.10;4.70;;;26.70;54.60;;;;;;6174555;23;20076;-69
2021/10/26 16:32:13;;;;;;;17.08;5.60;;;26.60;54.90;;;;;;6174428;23;20012;-66
2021/10/26 16:35:19;;;;;;;20.90;5.78;;;26.50;55.20;;;;;;6176342;23;20017;-74
2021/10/26 16:37:50;;;;;;;24.20;12.77;;;26.40;55.50;;;;;;6179550;23;20060;-74
2021/10/26 16:40:19;;;;;;;20.73;7.75;;;26.20;55.40;;;;;;6182065;23;20009;-77